Time;durP1;ratioP1;P1;durP2;ratioP2;P2;SDS_P1;SDS_P2;PMS_P1;PMS_P2;Temp;Humidity;BMP_temperature;BMP_pressure;BME280_temperature;BME280_humidity;BME280_pressure;Samples;Min_cycle;Max_cycle;Signal;HPM_P1;HPM_P2
2022/03/14 00:00:11;;;;;;;37.25;24.10;;;3.50;88.50;;;;;;5011228;28;20098;-47
2022/03/14 00:02:39;;;;;;;36.17;21.70;;;3.50;89.20;;;;;;5042144;28;20037;-46
2022/03/14 00:05:05;;;;;;;38.67;22.27;;;3.70;88.40;;;;;;5047119;28;20497;-47
2022/03/14 00:07:38;;;;;;;33.67;22.05;;;3.60;88.80;;;;;;5010388;28;20128;-47
2022/03/14 00:10:05;;;;;;;39.38;22.20;;;3.40;89.50;;;;;;5043522;28;20038;-47
2022/03/14 00:12:31;;;;;;;40.00;25.25;;;3.10;90.10;;;;;;4997434;28;20030;-47
2022/03/14 00:14:59;;;;;;;36.85;21.48;;;2.90;90.60;;;;;;5046895;28;20117;-47
2022/03/14 00:17:26;;;;;;;39.47;23.38;;;2.50;91.30;;;;;;5041414;28;20037;-47
2022/03/14 00:19:53;;;;;;;36.92;21.95;;;2.70;91.20;;;;;;5037500;28;20029;-48
2022/03/14 00:22:19;;;;;;;33.30;20.65;;;2.60;91.10;;;;;;5029861;28;20040;-47
2022/03/14 00:24:45;;;;;;;36.30;21.95;;;;;;;;;;5041455;28;20033;-47
2022/03/14 00:27:11;;;;;;;42.00;24.33;;;2.20;99.90;;;;;;5040504;28;20425;-46
2022/03/14 00:29:37;;;;;;;31.67;21.48;;;2.50;99.90;;;;;;5034182;28;20045;-47
2022/03/14 00:32:03;;;;;;;32.40;21.02;;;2.90;97.50;;;;;;5034065;28;20053;-47
2022/03/14 00:34:29;;;;;;;31.83;19.85;;;3.00;91.90;;;;;;5035326;28;20028;-46
2022/03/14 00:36:55;;;;;;;33.05;20.95;;;2.80;91.20;;;;;;5084414;28;20389;-47
2022/03/14 00:39:21;;;;;;;32.25;21.45;;;2.70;91.50;;;;;;5081935;28;20095;-48
2022/03/14 00:41:47;;;;;;;30.80;21.20;;;2.80;91.50;;;;;;5037578;28;20148;-47
2022/03/14 00:44:15;;;;;;;30.67;20.35;;;3.00;91.40;;;;;;5036992;28;20359;-46
2022/03/14 00:46:42;;;;;;;40.65;23.70;;;3.00;91.10;;;;;;5033731;28;20033;-47
2022/03/14 00:49:08;;;;;;;47.72;27.30;;;2.90;91.10;;;;;;5052919;28;20052;-46
2022/03/14 00:51:34;;;;;;;45.78;27.52;;;2.90;91.00;;;;;;5034466;28;20025;-46
2022/03/14 00:54:04;;;;;;;45.60;28.42;;;3.10;90.70;;;;;;5037862;28;20029;-46
2022/03/14 00:56:30;;;;;;;38.75;24.83;;;3.20;90.50;;;;;;5032160;28;20343;-52
2022/03/14 00:58:59;;;;;;;34.35;20.98;;;3.20;90.10;;;;;;5040452;28;20021;-46
2022/03/14 01:01:26;;;;;;;36.42;23.60;;;3.00;90.00;;;;;;5036767;28;20037;-46
2022/03/14 01:03:52;;;;;;;35.72;23.85;;;2.70;90.60;;;;;;5040474;28;20079;-47
2022/03/14 01:06:18;;;;;;;35.92;23.15;;;2.60;91.10;;;;;;5037704;28;20104;-47
2022/03/14 01:08:44;;;;;;;39.42;23.85;;;2.30;91.90;;;;;;5040191;28;20124;-46
2022/03/14 01:11:10;;;;;;;39.97;23.90;;;2.00;92.30;;;;;;5055381;28;20435;-47
2022/03/14 01:13:36;;;;;;;37.25;23.27;;;2.10;92.40;;;;;;5037273;28;20112;-47
2022/03/14 01:16:03;;;;;;;33.95;22.98;;;2.30;92.00;;;;;;5050961;28;20033;-47
2022/03/14 01:18:29;;;;;;;34.13;21.77;;;2.60;91.80;;;;;;5087389;28;20041;-47
2022/03/14 01:20:56;;;;;;;35.80;21.80;;;2.30;92.20;;;;;;5040709;28;20032;-47
2022/03/14 01:23:23;;;;;;;34.97;20.55;;;2.30;92.60;;;;;;5036183;28;20029;-47
2022/03/14 01:25:50;;;;;;;29.02;18.55;;;;;;;;;;5038059;28;20548;-46
2022/03/14 01:28:16;;;;;;;34.13;19.85;;;1.60;93.30;;;;;;5040344;28;20060;-47
2022/03/14 01:30:43;;;;;;;28.70;19.77;;;1.90;93.70;;;;;;5040089;28;20033;-47
2022/03/14 01:33:12;;;;;;;31.83;20.10;;;2.10;93.20;;;;;;5053853;28;20076;-46
2022/03/14 01:35:39;;;;;;;34.50;20.75;;;2.10;93.20;;;;;;5037148;28;20070;-46
2022/03/14 01:38:05;;;;;;;29.77;18.73;;;2.10;93.30;;;;;;5038397;28;20022;-46
2022/03/14 01:40:31;;;;;;;28.65;18.10;;;1.80;93.60;;;;;;5038540;28;20095;-46
2022/03/14 01:42:57;;;;;;;27.00;15.40;;;1.40;94.40;;;;;;5037365;28;20032;-46
2022/03/14 01:45:23;;;;;;;26.08;17.23;;;1.10;95.30;;;;;;5038499;28;20021;-47
2022/03/14 01:47:49;;;;;;;29.25;17.75;;;1.10;95.80;;;;;;5087671;28;20503;-46
2022/03/14 01:50:16;;;;;;;27.70;17.65;;;1.10;96.40;;;;;;5037367;28;20037;-46
2022/03/14 01:52:43;;;;;;;31.17;19.45;;;1.10;96.90;;;;;;5036054;28;20017;-46
2022/03/14 01:55:10;;;;;;;29.73;18.65;;;1.10;97.00;;;;;;5041800;28;20083;-47
2022/03/14 01:57:37;;;;;;;29.23;17.15;;;1.60;96.30;;;;;;5042781;28;20025;-46
2022/03/14 02:00:05;;;;;;;27.02;17.23;;;1.50;96.20;;;;;;5035996;28;20068;-47
2022/03/14 02:02:30;;;;;;;26.85;18.10;;;1.30;96.30;;;;;;5086717;28;20041;-47
2022/03/14 02:04:56;;;;;;;26.42;17.88;;;1.40;96.40;;;;;;5036086;28;20057;-47
2022/03/14 02:07:23;;;;;;;27.55;17.73;;;1.80;95.80;;;;;;5021273;28;20034;-46
2022/03/14 02:09:49;;;;;;;27.23;17.60;;;2.00;94.80;;;;;;5035986;28;20509;-47
2022/03/14 02:12:14;;;;;;;27.35;17.35;;;1.90;94.50;;;;;;5037320;28;20033;-47
2022/03/14 02:14:41;;;;;;;29.23;16.80;;;1.90;94.60;;;;;;5036823;28;20109;-46
2022/03/14 02:17:12;;;;;;;27.20;17.40;;;1.70;94.00;;;;;;5038430;28;20401;-47
2022/03/14 02:19:39;;;;;;;26.17;17.90;;;1.60;94.20;;;;;;5039227;28;20107;-46
2022/03/14 02:22:08;;;;;;;25.15;15.93;;;1.70;94.50;;;;;;5037305;28;20037;-46
2022/03/14 02:24:34;;;;;;;27.23;17.42;;;1.70;94.70;;;;;;5035855;28;20033;-47
2022/03/14 02:26:59;;;;;;;28.77;17.23;;;1.80;94.60;;;;;;5037756;28;20084;-46
2022/03/14 02:29:25;;;;;;;27.52;18.02;;;1.80;94.50;;;;;;5030935;28;20048;-46
2022/03/14 02:31:52;;;;;;;24.90;17.50;;;1.80;94.60;;;;;;5026553;28;20048;-46
2022/03/14 02:34:18;;;;;;;33.10;19.92;;;2.00;94.60;;;;;;5037719;28;20032;-47
2022/03/14 02:36:44;;;;;;;28.40;19.20;;;2.20;94.40;;;;;;5034268;28;20037;-47
2022/03/14 02:39:10;;;;;;;32.70;20.25;;;2.10;94.50;;;;;;5026591;28;20037;-46
2022/03/14 02:41:36;;;;;;;29.48;18.88;;;1.90;95.10;;;;;;5005437;28;20126;-46
2022/03/14 02:44:06;;;;;;;31.08;20.20;;;1.80;95.10;;;;;;5037418;28;20112;-46
2022/03/14 02:46:34;;;;;;;29.02;19.02;;;1.90;95.20;;;;;;5049491;28;20509;-47
2022/03/14 02:49:01;;;;;;;27.58;19.75;;;2.00;94.60;;;;;;5039193;28;20044;-46
2022/03/14 02:51:27;;;;;;;35.95;23.30;;;2.10;94.50;;;;;;5035598;28;20476;-46
2022/03/14 02:53:56;;;;;;;32.10;21.48;;;2.40;94.20;;;;;;5027550;28;20112;-46
2022/03/14 02:56:22;;;;;;;30.33;21.10;;;2.30;93.80;;;;;;5038636;28;20412;-47
2022/03/14 02:58:52;;;;;;;32.03;20.85;;;2.00;93.90;;;;;;5037151;28;20036;-47
2022/03/14 03:01:23;;;;;;;28.85;19.17;;;2.10;94.20;;;;;;5027741;28;20077;-46
2022/03/14 03:03:50;;;;;;;30.83;21.73;;;1.90;94.10;;;;;;5035010;28;20381;-46
2022/03/14 03:06:22;;;;;;;31.27;20.08;;;2.10;94.20;;;;;;5041929;28;20028;-46
2022/03/14 03:08:52;;;;;;;29.23;19.50;;;2.20;93.60;;;;;;5029206;28;20030;-46
2022/03/14 03:11:19;;;;;;;28.80;17.85;;;2.20;93.70;;;;;;5036390;28;20053;-46
2022/03/14 03:13:47;;;;;;;28.75;18.77;;;2.30;93.30;;;;;;5033180;28;20163;-45
2022/03/14 03:16:14;;;;;;;32.97;20.25;;;2.30;93.20;;;;;;5036569;28;20185;-46
2022/03/14 03:18:40;;;;;;;29.33;18.65;;;2.20;93.50;;;;;;5036126;28;20070;-46
2022/03/14 03:21:06;;;;;;;30.45;17.85;;;2.20;93.50;;;;;;5035146;28;20029;-47
2022/03/14 03:23:35;;;;;;;31.30;21.08;;;2.10;93.90;;;;;;5037407;28;20074;-46
2022/03/14 03:26:04;;;;;;;29.17;17.88;;;2.10;94.00;;;;;;5036139;28;20155;-45
2022/03/14 03:28:35;;;;;;;30.38;18.15;;;1.50;95.50;;;;;;5036984;28;20104;-46
2022/03/14 03:31:19;;;;;;;30.30;19.05;;;1.30;96.20;;;;;;5035672;28;20033;-45
2022/03/14 03:33:47;;;;;;;27.75;17.33;;;1.00;97.00;;;;;;5040228;28;20088;-45
2022/03/14 03:36:14;;;;;;;24.50;16.25;;;0.80;97.50;;;;;;5033610;28;20434;-45
2022/03/14 03:38:40;;;;;;;23.27;16.27;;;0.60;97.80;;;;;;5037783;28;20048;-46
2022/03/14 03:41:06;;;;;;;24.55;17.58;;;0.70;97.80;;;;;;5051287;28;20415;-46
2022/03/14 03:43:31;;;;;;;26.67;16.35;;;1.00;97.10;;;;;;5040587;28;20033;-45
2022/03/14 03:45:58;;;;;;;23.40;16.23;;;1.10;96.80;;;;;;5034427;28;20026;-50
2022/03/14 03:48:24;;;;;;;29.02;19.08;;;0.80;96.70;;;;;;4996561;28;20037;-46
2022/03/14 03:50:49;;;;;;;28.60;17.10;;;0.80;96.30;;;;;;5032378;28;20072;-46
2022/03/14 03:53:15;;;;;;;24.10;17.13;;;0.80;95.90;;;;;;5036590;28;20052;-46
2022/03/14 03:55:41;;;;;;;27.58;17.27;;;0.80;96.20;;;;;;5034731;28;20431;-46
2022/03/14 03:58:07;;;;;;;24.60;16.63;;;0.90;95.80;;;;;;5044817;28;20040;-45
2022/03/14 04:00:33;;;;;;;26.50;16.75;;;1.10;95.90;;;;;;5034941;28;20132;-46
2022/03/14 04:02:59;;;;;;;26.90;16.52;;;1.30;95.60;;;;;;5050097;28;20463;-46
2022/03/14 04:05:27;;;;;;;26.80;16.27;;;1.60;94.90;;;;;;5038934;28;20029;-46
2022/03/14 04:07:57;;;;;;;27.15;16.77;;;1.60;94.40;;;;;;5082227;28;21480;-46
2022/03/14 04:10:27;;;;;;;26.52;16.23;;;1.70;94.40;;;;;;5035129;28;20096;-46
2022/03/14 04:12:53;;;;;;;26.40;17.02;;;1.80;94.20;;;;;;5033290;28;20383;-47
2022/03/14 04:15:21;;;;;;;24.30;16.60;;;1.80;93.90;;;;;;5028118;28;20048;-46
2022/03/14 04:17:47;;;;;;;27.30;17.25;;;1.60;94.30;;;;;;5035249;28;20030;-46
2022/03/14 04:20:13;;;;;;;27.73;17.50;;;1.90;94.10;;;;;;5034819;28;20026;-46
2022/03/14 04:22:39;;;;;;;27.88;16.90;;;2.00;94.00;;;;;;5085817;28;20037;-46
2022/03/14 04:25:07;;;;;;;26.02;17.30;;;2.10;93.90;;;;;;5035575;28;20029;-45
2022/03/14 04:27:33;;;;;;;27.25;17.13;;;2.00;93.70;;;;;;5027038;28;20048;-46
2022/03/14 04:29:59;;;;;;;28.08;17.38;;;2.00;93.60;;;;;;5040306;28;20410;-46
2022/03/14 04:32:26;;;;;;;26.40;17.48;;;1.90;93.80;;;;;;5041198;28;20056;-46
2022/03/14 04:34:52;;;;;;;26.77;18.45;;;1.80;94.10;;;;;;5036869;28;20409;-46
2022/03/14 04:37:19;;;;;;;26.02;18.75;;;1.80;94.30;;;;;;5041115;28;20030;-46
2022/03/14 04:39:46;;;;;;;31.30;19.25;;;1.70;94.70;;;;;;5035951;28;20089;-46
2022/03/14 04:42:12;;;;;;;35.13;21.58;;;1.70;94.90;;;;;;5087653;28;20045;-46
2022/03/14 04:44:38;;;;;;;31.33;20.73;;;1.60;95.00;;;;;;5039971;28;20021;-47
2022/03/14 04:47:04;;;;;;;34.25;22.17;;;1.90;94.80;;;;;;5036714;28;20080;-47
2022/03/14 04:49:30;;;;;;;29.75;21.33;;;2.10;94.60;;;;;;5042000;28;20107;-46
2022/03/14 04:51:57;;;;;;;37.25;21.17;;;2.40;99.90;;;;;;5085654;28;20482;-46
2022/03/14 04:54:23;;;;;;;31.73;19.80;;;2.40;93.90;;;;;;5039297;28;20080;-46
2022/03/14 04:56:49;;;;;;;31.45;19.95;;;;;;;;;;5037724;28;20025;-46
2022/03/14 04:59:16;;;;;;;29.73;20.73;;;;;;;;;;5055785;28;20040;-46
2022/03/14 05:01:42;;;;;;;30.02;18.90;;;2.90;99.90;;;;;;5039259;28;20083;-46
2022/03/14 05:04:08;;;;;;;32.58;19.90;;;2.50;99.90;;;;;;5039371;28;20033;-46
2022/03/14 05:06:34;;;;;;;30.77;19.88;;;2.40;99.90;;;;;;5036988;28;20132;-47
2022/03/14 05:09:01;;;;;;;30.52;19.63;;;2.50;99.90;;;;;;5036293;28;20112;-46
2022/03/14 05:11:27;;;;;;;27.30;18.05;;;2.60;99.90;;;;;;5042281;28;20469;-46
2022/03/14 05:13:53;;;;;;;33.17;18.63;;;2.70;99.90;;;;;;5084326;28;20041;-46
2022/03/14 05:16:20;;;;;;;35.97;21.42;;;2.60;99.90;;;;;;5041368;28;20159;-46
2022/03/14 05:18:46;;;;;;;29.45;20.15;;;2.40;99.90;;;;;;5041435;28;20028;-46
2022/03/14 05:21:13;;;;;;;32.58;20.67;;;2.40;99.90;;;;;;5037156;28;20415;-46
2022/03/14 05:23:39;;;;;;;32.22;20.83;;;2.50;99.90;;;;;;5039856;28;20029;-46
2022/03/14 05:26:05;;;;;;;52.13;28.25;;;2.50;99.90;;;;;;5088650;28;20124;-46
2022/03/14 05:28:31;;;;;;;55.55;30.55;;;2.50;99.90;;;;;;5040289;28;20155;-46
2022/03/14 05:30:57;;;;;;;37.70;22.50;;;2.70;99.90;;;;;;5039491;28;20037;-46
2022/03/14 05:33:23;;;;;;;31.45;19.38;;;2.60;99.90;;;;;;5040125;28;20060;-46
2022/03/14 05:35:49;;;;;;;34.92;22.75;;;2.50;99.90;;;;;;5036367;28;20454;-46
2022/03/14 05:38:15;;;;;;;33.20;23.23;;;2.30;99.90;;;;;;5036563;28;20047;-47
2022/03/14 05:40:41;;;;;;;32.67;24.75;;;2.30;99.90;;;;;;5050596;28;20065;-46
2022/03/14 05:43:09;;;;;;;34.72;24.52;;;2.50;99.90;;;;;;5038414;28;20389;-45
2022/03/14 05:45:35;;;;;;;42.92;27.35;;;;;;;;;;5038585;28;20036;-46
2022/03/14 05:48:01;;;;;;;36.38;23.95;;;3.00;99.90;;;;;;5040477;28;20021;-46
2022/03/14 05:50:27;;;;;;;49.40;28.42;;;3.00;94.30;;;;;;5039427;28;20496;-46
2022/03/14 05:52:53;;;;;;;51.08;26.33;;;3.30;94.50;;;;;;5013901;28;20045;-46
2022/03/14 05:55:19;;;;;;;46.05;22.60;;;3.50;94.70;;;;;;4976006;28;20502;-46
2022/03/14 05:57:45;;;;;;;40.88;22.25;;;3.60;94.70;;;;;;4995097;28;20046;-45
2022/03/14 06:00:12;;;;;;;41.05;24.48;;;;;;;;;;4986942;28;20077;-46
2022/03/14 06:02:39;;;;;;;34.95;22.52;;;;;;;;;;5013239;28;20042;-45
2022/03/14 06:05:05;;;;;;;41.60;24.85;;;3.80;94.40;;;;;;4989274;28;20058;-47
2022/03/14 06:07:31;;;;;;;42.63;21.73;;;3.90;94.40;;;;;;4994547;28;20144;-47
2022/03/14 06:09:57;;;;;;;49.55;25.27;;;3.70;94.60;;;;;;4993081;28;20030;-47
2022/03/14 06:12:25;;;;;;;46.95;26.58;;;3.80;94.80;;;;;;4993788;28;20030;-46
2022/03/14 06:14:53;;;;;;;48.38;26.98;;;3.80;94.40;;;;;;4970042;28;20062;-46
2022/03/14 06:17:19;;;;;;;32.15;21.13;;;3.90;94.10;;;;;;4977393;28;20062;-46
2022/03/14 06:19:45;;;;;;;34.33;22.08;;;3.90;92.80;;;;;;4991057;28;20129;-46
2022/03/14 06:22:11;;;;;;;34.30;21.85;;;4.00;93.50;;;;;;5012401;28;20563;-46
2022/03/14 06:24:36;;;;;;;34.60;21.95;;;4.20;93.20;;;;;;5013408;28;20541;-46
2022/03/14 06:27:03;;;;;;;33.72;22.83;;;4.20;92.50;;;;;;5010917;28;20092;-46
2022/03/14 06:29:29;;;;;;;29.90;20.80;;;4.50;93.30;;;;;;4982719;28;20049;-47
2022/03/14 06:31:55;;;;;;;30.33;21.48;;;4.90;93.40;;;;;;5017285;28;20045;-46
2022/03/14 06:34:21;;;;;;;31.17;20.48;;;5.00;92.90;;;;;;5068946;28;20029;-47
2022/03/14 06:36:47;;;;;;;41.65;26.83;;;4.70;92.00;;;;;;5058589;28;20052;-46
2022/03/14 06:39:13;;;;;;;33.67;23.55;;;4.90;93.10;;;;;;5065102;28;20024;-47
2022/03/14 06:41:39;;;;;;;31.40;21.08;;;5.20;93.50;;;;;;5060260;28;20585;-47
2022/03/14 06:44:05;;;;;;;35.10;21.75;;;5.60;93.80;;;;;;5020234;28;20034;-47
2022/03/14 06:46:31;;;;;;;33.38;21.98;;;4.90;93.70;;;;;;5053776;28;20044;-47
2022/03/14 06:48:57;;;;;;;35.15;23.27;;;4.70;93.50;;;;;;5021911;28;20044;-46
2022/03/14 06:51:24;;;;;;;37.25;21.88;;;5.20;95.20;;;;;;5059119;28;20037;-46
2022/03/14 06:53:50;;;;;;;39.35;24.05;;;5.20;94.80;;;;;;4993779;28;20124;-47
2022/03/14 06:56:16;;;;;;;36.67;22.98;;;;;;;;;;5033415;28;20507;-46
2022/03/14 06:58:43;;;;;;;32.05;22.38;;;;;;;;;;5038735;28;20040;-46
2022/03/14 07:01:09;;;;;;;31.80;19.27;;;6.60;93.00;;;;;;5033283;28;20029;-47
2022/03/14 07:03:34;;;;;;;35.53;21.25;;;6.50;90.80;;;;;;5046572;28;20044;-47
2022/03/14 07:06:00;;;;;;;30.80;21.95;;;6.60;91.30;;;;;;5041150;28;20029;-47
2022/03/14 07:08:26;;;;;;;35.90;23.73;;;7.10;91.10;;;;;;5035562;28;20107;-47
2022/03/14 07:10:54;;;;;;;41.30;23.77;;;6.70;91.40;;;;;;5035607;28;20029;-46
2022/03/14 07:13:20;;;;;;;34.03;22.10;;;6.50;91.60;;;;;;5039273;28;20481;-46
2022/03/14 07:15:45;;;;;;;36.67;19.30;;;6.80;92.00;;;;;;5034933;28;20049;-46
2022/03/14 07:18:11;;;;;;;38.28;25.75;;;6.80;91.90;;;;;;5040535;28;20065;-47
2022/03/14 07:20:38;;;;;;;36.63;23.08;;;7.60;99.90;;;;;;5053583;28;20078;-47
2022/03/14 07:23:06;;;;;;;40.22;24.77;;;;;;;;;;5046720;28;20127;-47
2022/03/14 07:25:36;;;;;;;39.50;26.25;;;9.10;93.00;;;;;;5054598;28;20033;-46
2022/03/14 07:28:07;;;;;;;41.20;25.35;;;9.40;94.10;;;;;;5054336;28;20033;-48
2022/03/14 07:30:34;;;;;;;34.42;24.05;;;;;;;;;;5053955;28;20051;-48
2022/03/14 07:33:00;;;;;;;28.88;18.63;;;;;;;;;;5052964;28;20049;-47
2022/03/14 07:35:27;;;;;;;24.55;14.40;;;;;;;;;;5054301;28;20171;-47
2022/03/14 07:37:53;;;;;;;28.77;18.30;;;;;;;;;;5053099;28;20035;-47
2022/03/14 07:40:20;;;;;;;29.77;17.67;;;;;;;;;;5055726;28;20033;-48
2022/03/14 07:42:48;;;;;;;23.63;16.80;;;12.00;80.20;;;;;;5056662;28;20060;-47
2022/03/14 07:45:16;;;;;;;12.23;8.05;;;11.90;78.60;;;;;;5053633;28;20521;-47
2022/03/14 07:47:43;;;;;;;18.70;13.70;;;;;;;;;;5052552;28;20039;-45
2022/03/14 07:50:11;;;;;;;22.70;13.38;;;;;;;;;;5054917;28;20033;-47
2022/03/14 07:52:38;;;;;;;18.13;13.30;;;;;;;;;;5038689;28;20483;-45
2022/03/14 07:55:07;;;;;;;16.42;11.82;;;;;;;;;;5036393;28;20480;-45
2022/03/14 07:57:34;;;;;;;14.07;9.50;;;;;;;;;;5036238;28;20029;-45
2022/03/14 08:00:01;;;;;;;16.30;10.38;;;;;;;;;;5035438;28;20021;-45
2022/03/14 08:02:27;;;;;;;20.42;14.63;;;;;;;;;;5034866;28;20025;-45
2022/03/14 08:04:53;;;;;;;19.92;14.32;;;;;;;;;;5040841;28;20063;-45
2022/03/14 08:07:20;;;;;;;20.92;15.43;;;12.50;75.60;;;;;;5041799;28;20064;-45
2022/03/14 08:09:49;;;;;;;19.30;13.30;;;12.60;73.80;;;;;;5037445;28;20049;-45
2022/03/14 08:12:16;;;;;;;14.20;10.75;;;12.70;74.80;;;;;;5088042;28;20038;-47
2022/03/14 08:14:42;;;;;;;14.15;8.50;;;12.70;71.40;;;;;;5038830;28;20060;-47
2022/03/14 08:17:08;;;;;;;20.02;13.65;;;12.40;72.10;;;;;;5039947;28;20084;-48
2022/03/14 08:19:34;;;;;;;262.92;223.40;;;;;;;;;;5031818;28;20545;-47
2022/03/14 08:22:02;;;;;;;19.25;12.82;;;15.20;90.90;;;;;;5001248;28;20397;-47
2022/03/14 08:24:28;;;;;;;19.55;13.60;;;13.50;71.50;;;;;;5029350;28;20196;-47
2022/03/14 08:26:54;;;;;;;19.92;13.75;;;14.50;70.70;;;;;;5014130;28;20046;-47
2022/03/14 08:29:20;;;;;;;18.48;13.10;;;14.20;70.80;;;;;;5001656;28;20429;-47
2022/03/14 08:31:46;;;;;;;21.63;13.70;;;14.10;69.30;;;;;;5030072;28;20050;-47
2022/03/14 08:34:12;;;;;;;25.90;14.90;;;;;;;;;;5039669;28;20052;-46
2022/03/14 08:36:40;;;;;;;22.23;17.67;;;;;;;;;;5011954;28;20029;-47
2022/03/14 08:39:09;;;;;;;21.92;14.65;;;17.40;65.80;;;;;;5032705;28;20503;-47
2022/03/14 08:41:40;;;;;;;20.60;14.57;;;;;;;;;;5018184;28;20184;-47
2022/03/14 08:44:09;;;;;;;39.63;29.98;;;;;;;;;;5026556;28;20116;-47
2022/03/14 08:46:35;;;;;;;22.08;17.95;;;18.90;66.80;;;;;;5030535;28;20508;-47
2022/03/14 08:49:01;;;;;;;18.08;13.60;;;;;;;;;;4996703;28;20075;-48
2022/03/14 08:51:27;;;;;;;26.95;18.65;;;19.30;71.10;;;;;;5041624;28;20425;-47
2022/03/14 08:53:53;;;;;;;30.13;18.48;;;20.20;63.40;;;;;;5087582;28;20034;-47
2022/03/14 08:56:20;;;;;;;21.13;13.63;;;19.90;62.30;;;;;;5037802;28;20026;-47
2022/03/14 08:58:45;;;;;;;18.88;14.30;;;19.90;62.30;;;;;;5039615;28;20060;-47
2022/03/14 09:01:12;;;;;;;18.13;12.45;;;19.30;61.90;;;;;;5038450;28;20065;-46
2022/03/14 09:03:38;;;;;;;26.77;18.83;;;18.10;62.10;;;;;;5040741;28;20035;-46
2022/03/14 09:06:05;;;;;;;24.45;18.73;;;18.80;63.10;;;;;;5036766;28;20037;-47
2022/03/14 09:08:31;;;;;;;16.05;12.02;;;19.90;62.10;;;;;;5040259;28;20121;-46
2022/03/14 09:11:00;;;;;;;19.05;14.88;;;18.80;61.10;;;;;;5038578;28;20112;-47
2022/03/14 09:13:26;;;;;;;17.88;14.02;;;19.90;61.20;;;;;;5041393;28;20057;-46
2022/03/14 09:15:52;;;;;;;18.63;13.55;;;19.80;67.70;;;;;;5037219;28;20436;-46
2022/03/14 09:18:20;;;;;;;19.70;13.15;;;20.00;69.30;;;;;;5041374;28;20115;-47
2022/03/14 09:20:47;;;;;;;15.82;12.52;;;19.80;69.60;;;;;;5030076;28;20034;-47
2022/03/14 09:23:13;;;;;;;20.00;12.77;;;;;;;;;;5087832;28;20091;-46
2022/03/14 09:25:39;;;;;;;18.85;12.77;;;19.50;58.60;;;;;;5039436;28;20029;-47
2022/03/14 09:28:05;;;;;;;19.52;12.30;;;19.80;59.70;;;;;;5031116;28;20148;-46
2022/03/14 09:30:31;;;;;;;16.08;12.55;;;20.00;59.10;;;;;;5037909;28;20047;-46
2022/03/14 09:32:57;;;;;;;19.95;12.65;;;19.50;60.00;;;;;;5043710;28;20144;-46
2022/03/14 09:35:24;;;;;;;19.50;12.80;;;19.30;58.60;;;;;;5038555;28;20029;-46
2022/03/14 09:37:50;;;;;;;16.73;12.07;;;19.40;59.90;;;;;;5036078;28;20496;-47
2022/03/14 09:40:19;;;;;;;17.67;11.65;;;19.00;59.60;;;;;;5035171;28;20033;-47
2022/03/14 09:42:56;;;;;;;19.48;14.63;;;19.70;60.20;;;;;;5050009;28;20482;-46
2022/03/14 09:45:22;;;;;;;67.13;60.00;;;18.90;59.20;;;;;;5036827;28;20033;-46
2022/03/14 09:47:51;;;;;;;31.10;27.02;;;19.70;60.00;;;;;;5038745;28;20022;-47
2022/03/14 09:50:38;;;;;;;18.77;15.70;;;21.00;59.40;;;;;;5035862;28;20695;-45
2022/03/14 09:53:08;;;;;;;22.45;16.30;;;19.60;58.70;;;;;;5032790;28;20034;-46
2022/03/14 09:55:40;;;;;;;18.17;14.13;;;19.10;59.40;;;;;;5033213;28;20034;-45
2022/03/14 09:58:11;;;;;;;20.42;13.40;;;19.90;58.90;;;;;;5032773;28;20398;-46
2022/03/14 10:00:37;;;;;;;19.35;13.90;;;19.70;58.90;;;;;;5033776;28;20033;-46
2022/03/14 10:03:04;;;;;;;17.15;12.85;;;;;;;;;;5032777;28;20030;-46
2022/03/14 10:05:29;;;;;;;15.88;10.90;;;21.90;58.40;;;;;;5032726;28;20380;-46
2022/03/14 10:07:56;;;;;;;16.75;10.43;;;;;;;;;;5032387;28;20074;-46
2022/03/14 10:10:22;;;;;;;14.70;11.15;;;22.30;56.60;;;;;;5033473;28;20037;-46
2022/03/14 10:12:57;;;;;;;16.20;11.65;;;22.40;56.90;;;;;;5032538;28;20033;-47
2022/03/14 10:15:25;;;;;;;14.88;11.38;;;20.60;57.50;;;;;;5032250;28;20469;-46
2022/03/14 10:17:55;;;;;;;15.50;11.32;;;19.90;58.00;;;;;;5032271;28;20041;-45
2022/03/14 10:20:22;;;;;;;16.35;12.00;;;20.20;58.60;;;;;;5029814;28;20476;-46
2022/03/14 10:22:49;;;;;;;12.82;9.50;;;18.90;58.30;;;;;;5031037;28;20056;-45
2022/03/14 10:25:20;;;;;;;13.13;9.98;;;19.80;58.80;;;;;;5009757;28;20049;-45
2022/03/14 10:27:56;;;;;;;12.98;10.18;;;21.00;58.60;;;;;;5027356;28;20479;-47
2022/03/14 10:30:31;;;;;;;12.10;9.70;;;20.90;57.20;;;;;;5033400;28;20076;-44
2022/03/14 10:33:01;;;;;;;15.27;8.10;;;20.90;57.80;;;;;;5034537;28;20052;-45
2022/03/14 10:35:33;;;;;;;13.65;9.48;;;20.80;56.50;;;;;;5039645;28;20030;-47
2022/03/14 10:38:04;;;;;;;13.05;9.57;;;21.90;58.70;;;;;;5036588;28;20523;-46
2022/03/14 10:40:33;;;;;;;12.00;7.95;;;20.40;57.70;;;;;;5035077;28;20029;-47
2022/03/14 10:42:59;;;;;;;11.60;8.13;;;19.60;58.30;;;;;;5019749;28;20033;-44
2022/03/14 10:45:29;;;;;;;10.73;8.57;;;20.50;57.00;;;;;;5038011;28;20052;-45
2022/03/14 10:47:57;;;;;;;11.90;8.40;;;20.00;57.10;;;;;;5037645;28;20036;-44
2022/03/14 10:50:36;;;;;;;10.02;7.30;;;20.60;58.40;;;;;;5035167;28;20032;-45
2022/03/14 10:53:17;;;;;;;11.05;8.23;;;20.70;55.50;;;;;;5034990;28;20029;-45
2022/03/14 10:55:49;;;;;;;12.05;8.07;;;;;;;;;;5036346;28;20026;-45
2022/03/14 10:58:17;;;;;;;11.02;7.18;;;21.70;57.40;;;;;;5034579;28;20026;-45
2022/03/14 11:00:48;;;;;;;9.32;7.40;;;22.00;57.10;;;;;;5041922;28;20025;-44
2022/03/14 11:03:36;;;;;;;8.98;6.13;;;22.00;55.70;;;;;;5037661;28;20029;-44
2022/03/14 11:06:07;;;;;;;12.80;6.20;;;22.10;56.20;;;;;;5034501;28;20079;-45
2022/03/14 11:08:40;;;;;;;9.15;6.22;;;;;;;;;;5037277;28;20065;-45
2022/03/14 11:11:08;;;;;;;8.63;5.65;;;;;;;;;;5035629;28;20033;-45
2022/03/14 11:13:42;;;;;;;9.48;7.65;;;22.10;74.90;;;;;;5040488;28;20473;-44
2022/03/14 11:16:12;;;;;;;7.60;5.63;;;21.70;55.70;;;;;;5036071;28;20487;-43
2022/03/14 11:18:39;;;;;;;8.65;5.40;;;21.40;56.40;;;;;;5035527;28;20056;-44
2022/03/14 11:21:08;;;;;;;8.50;5.50;;;22.40;55.20;;;;;;5033784;28;20052;-45
2022/03/14 11:23:35;;;;;;;8.27;5.78;;;22.60;56.20;;;;;;5036136;28;20040;-45
2022/03/14 11:26:02;;;;;;;5.30;4.30;;;22.10;54.80;;;;;;5037035;28;20124;-45
2022/03/14 11:28:34;;;;;;;6.50;4.95;;;21.80;55.60;;;;;;5035685;28;20033;-45
2022/03/14 11:31:00;;;;;;;8.23;4.80;;;22.00;55.40;;;;;;5033761;28;20133;-46
2022/03/14 11:33:29;;;;;;;5.43;4.25;;;22.10;55.40;;;;;;5036333;28;20053;-46
2022/03/14 11:35:55;;;;;;;7.20;4.93;;;22.90;54.60;;;;;;5035212;28;20033;-46
2022/03/14 11:38:21;;;;;;;7.25;5.43;;;22.40;55.30;;;;;;5033285;28;20048;-46
2022/03/14 11:40:49;;;;;;;6.22;4.78;;;22.30;55.10;;;;;;5038055;28;20029;-46
2022/03/14 11:43:16;;;;;;;6.45;4.50;;;21.50;57.00;;;;;;5037410;28;20032;-46
2022/03/14 11:45:42;;;;;;;7.32;4.78;;;21.10;54.80;;;;;;5039313;28;20037;-46
2022/03/14 11:48:09;;;;;;;5.90;4.05;;;21.20;55.60;;;;;;5026076;28;20037;-46
2022/03/14 11:50:42;;;;;;;8.60;4.22;;;21.50;55.80;;;;;;5028345;28;20049;-46
2022/03/14 11:53:08;;;;;;;4.63;3.90;;;21.50;54.70;;;;;;5029412;28;20073;-46
2022/03/14 11:55:34;;;;;;;5.43;3.50;;;20.50;55.30;;;;;;5023657;28;20034;-46
2022/03/14 11:58:00;;;;;;;4.93;3.85;;;20.50;55.40;;;;;;5026497;28;20087;-45
2022/03/14 12:00:31;;;;;;;5.43;3.88;;;20.70;55.80;;;;;;5024818;28;20414;-46
2022/03/14 12:03:02;;;;;;;7.35;3.90;;;20.60;56.20;;;;;;5020681;28;20088;-46
2022/03/14 12:05:31;;;;;;;3.53;3.00;;;21.20;56.20;;;;;;5025242;28;20466;-45
2022/03/14 12:07:57;;;;;;;5.72;5.07;;;19.20;56.20;;;;;;5019288;28;20044;-45
2022/03/14 12:10:35;;;;;;;5.57;4.25;;;18.20;57.10;;;;;;5022401;28;20049;-47
2022/03/14 12:13:02;;;;;;;5.15;3.28;;;19.70;58.90;;;;;;5017880;28;20046;-45
2022/03/14 12:15:38;;;;;;;13.80;12.32;;;19.20;58.40;;;;;;5026130;28;20036;-45
2022/03/14 12:18:23;;;;;;;5.00;3.40;;;19.30;56.70;;;;;;5005669;28;20034;-45
2022/03/14 12:20:52;;;;;;;8.73;7.25;;;19.30;57.10;;;;;;5031493;28;20037;-45
2022/03/14 12:23:32;;;;;;;6.85;4.10;;;20.10;58.20;;;;;;5036153;28;20492;-45
2022/03/14 12:26:24;;;;;;;26.67;21.60;;;20.10;56.10;;;;;;5033251;28;20071;-45
2022/03/14 12:28:52;;;;;;;29.27;13.32;;;20.20;57.80;;;;;;4952130;28;20053;-45
2022/03/14 12:31:19;;;;;;;4.78;3.67;;;19.40;56.20;;;;;;4986324;28;20113;-46
2022/03/14 12:33:46;;;;;;;4.07;2.83;;;18.90;57.40;;;;;;4985749;28;20038;-45
2022/03/14 12:36:22;;;;;;;4.05;2.97;;;19.10;57.50;;;;;;4985253;28;20481;-45
2022/03/14 12:39:06;;;;;;;5.03;3.28;;;19.00;58.40;;;;;;4990381;28;20085;-45
2022/03/14 12:41:42;;;;;;;5.97;3.72;;;19.20;57.60;;;;;;4956349;28;20042;-44
2022/03/14 12:44:25;;;;;;;3.53;2.90;;;19.30;58.30;;;;;;4986158;28;20481;-45
2022/03/14 12:46:53;;;;;;;4.05;2.95;;;19.70;57.80;;;;;;4985244;28;20045;-45